createdAt,value
2023-04-22T00:02:32.741Z,7.00
2023-04-22T00:05:16.430Z,7.30
2023-04-22T00:08:01.243Z,6.00
2023-04-22T00:10:40.530Z,6.90
2023-04-22T00:13:19.421Z,4.90
2023-04-22T00:15:58.144Z,5.90
2023-04-22T00:18:38.419Z,5.80
2023-04-22T00:21:18.469Z,4.90
2023-04-22T00:23:57.304Z,5.40
2023-04-22T00:26:36.318Z,6.20
2023-04-22T00:29:14.691Z,6.40
2023-04-22T00:31:53.064Z,8.20
2023-04-22T00:34:24.127Z,7.60
2023-04-22T00:36:56.144Z,6.80
2023-04-22T00:39:33.418Z,6.20
2023-04-22T00:42:13.007Z,7.90
2023-04-22T00:44:53.153Z,6.50
2023-04-22T00:47:32.628Z,6.10
2023-04-22T00:50:13.660Z,6.60
2023-04-22T00:52:52.329Z,6.60
2023-04-22T00:55:30.985Z,7.00
2023-04-22T00:58:11.932Z,7.00
2023-04-22T01:00:50.461Z,7.30
2023-04-22T01:03:35.757Z,7.30
2023-04-22T01:06:14.045Z,5.90
2023-04-22T01:08:53.719Z,7.00
2023-04-22T01:11:32.481Z,7.50
2023-04-22T01:14:12.411Z,6.40
2023-04-22T01:16:51.874Z,7.10
2023-04-22T01:19:31.186Z,7.60
2023-04-22T01:22:13.055Z,7.00
2023-04-22T01:24:53.003Z,6.20
2023-04-22T01:27:32.438Z,7.20
2023-04-22T01:30:09.937Z,7.90
2023-04-22T01:32:45.477Z,6.70
2023-04-22T01:35:24.802Z,7.20
2023-04-22T01:38:03.313Z,7.50
2023-04-22T01:40:41.693Z,9.00
2023-04-22T01:43:19.744Z,6.80
2023-04-22T01:45:58.191Z,7.00
2023-04-22T01:48:37.768Z,6.90
2023-04-22T01:51:16.439Z,6.70
2023-04-22T01:53:55.642Z,7.30
2023-04-22T01:56:34.366Z,6.70
2023-04-22T01:59:13.796Z,6.90
2023-04-22T02:01:53.025Z,7.40
2023-04-22T02:04:32.052Z,6.90
2023-04-22T02:07:13.088Z,7.30
2023-04-22T02:09:51.527Z,7.00
2023-04-22T02:12:30.398Z,6.10
2023-04-22T02:15:11.056Z,5.20
2023-04-22T02:17:49.687Z,6.70
2023-04-22T02:20:22.242Z,6.90
2023-04-22T02:22:57.370Z,7.30
2023-04-22T02:25:36.115Z,6.70
2023-04-22T02:28:10.247Z,5.80
2023-04-22T02:30:49.771Z,5.70
2023-04-22T02:33:28.445Z,6.80
2023-04-22T02:36:07.917Z,5.90
2023-04-22T02:38:48.333Z,6.10
2023-04-22T02:41:27.293Z,6.40
2023-04-22T02:44:06.843Z,6.70
2023-04-22T02:46:45.538Z,6.50
2023-04-22T02:49:24.933Z,6.20
2023-04-22T02:52:03.497Z,6.30
2023-04-22T02:54:41.952Z,5.60
2023-04-22T02:57:21.570Z,6.90
2023-04-22T03:00:00.667Z,6.10
2023-04-22T03:02:39.424Z,6.10
2023-04-22T03:05:18.980Z,6.00
2023-04-22T03:07:58.158Z,5.50
2023-04-22T03:10:37.267Z,6.80
2023-04-22T03:13:17.999Z,5.80
2023-04-22T03:15:57.088Z,6.40
2023-04-22T03:18:35.745Z,5.90
2023-04-22T03:21:15.428Z,5.70
2023-04-22T03:23:54.547Z,6.10
2023-04-22T03:26:33.437Z,6.20
2023-04-22T03:29:13.334Z,5.50
2023-04-22T03:31:51.560Z,5.80
2023-04-22T03:34:22.851Z,6.00
2023-04-22T03:36:59.140Z,7.50
2023-04-22T03:39:38.819Z,5.80
2023-04-22T03:42:18.606Z,5.80
2023-04-22T03:44:58.083Z,5.60
2023-04-22T03:47:38.133Z,7.20
2023-04-22T03:50:18.041Z,6.20
2023-04-22T03:52:57.649Z,5.40
2023-04-22T03:55:36.743Z,6.30
2023-04-22T03:58:17.391Z,6.20
2023-04-22T04:00:56.432Z,6.20
2023-04-22T04:03:36.221Z,6.40
2023-04-22T04:06:16.158Z,6.30
2023-04-22T04:08:55.661Z,6.80
2023-04-22T04:11:34.763Z,6.40
2023-04-22T04:14:14.618Z,5.40
2023-04-22T04:16:54.690Z,5.90
2023-04-22T04:19:26.205Z,6.10
2023-04-22T04:22:07.100Z,5.60
2023-04-22T04:24:46.173Z,6.10
2023-04-22T04:27:25.588Z,4.50
2023-04-22T04:30:04.356Z,5.00
2023-04-22T04:32:46.096Z,6.40
2023-04-22T04:35:25.391Z,6.10
2023-04-22T04:38:05.622Z,4.00
2023-04-22T04:40:45.965Z,6.00
2023-04-22T04:43:26.278Z,3.10
2023-04-22T04:46:06.779Z,6.10
2023-04-22T04:48:46.847Z,3.60
2023-04-22T04:51:27.025Z,5.80
2023-04-22T04:53:57.349Z,4.70
2023-04-22T04:56:37.640Z,5.20
2023-04-22T04:59:16.515Z,4.20
2023-04-22T05:01:56.588Z,5.80
2023-04-22T05:04:36.071Z,3.10
2023-04-22T05:07:07.136Z,4.60
2023-04-22T05:09:42.489Z,4.20
2023-04-22T05:12:21.714Z,4.10
2023-04-22T05:15:01.566Z,5.50
2023-04-22T05:17:41.281Z,4.80
2023-04-22T05:20:18.882Z,6.00
2023-04-22T05:22:58.964Z,6.10
2023-04-22T05:25:39.148Z,3.60
2023-04-22T05:28:18.387Z,5.10
2023-04-22T05:30:57.794Z,5.60
2023-04-22T05:33:36.960Z,4.20
2023-04-22T05:36:16.618Z,6.00
2023-04-22T05:38:56.462Z,5.40
2023-04-22T05:41:28.485Z,6.00
2023-04-22T05:44:10.011Z,5.50
2023-04-22T05:46:49.547Z,3.90
2023-04-22T05:49:29.207Z,6.20
2023-04-22T05:52:10.825Z,3.60
2023-04-22T05:54:50.217Z,3.80
2023-04-22T05:57:29.141Z,6.80
2023-04-22T06:00:09.517Z,4.80
2023-04-22T06:05:26.265Z,6.70
2023-04-22T06:08:06.067Z,6.70
2023-04-22T06:10:46.612Z,7.30
2023-04-22T06:13:27.925Z,6.70
2023-04-22T06:18:55.511Z,5.80
2023-04-22T06:21:40.179Z,6.70
2023-04-22T06:24:19.927Z,6.50
2023-04-22T06:26:59.069Z,6.90
2023-04-22T06:29:38.653Z,8.10
2023-04-22T06:32:18.633Z,7.50
2023-04-22T06:34:54.591Z,7.30
2023-04-22T06:37:34.620Z,7.10
2023-04-22T06:40:16.603Z,8.50
2023-04-22T06:42:55.966Z,6.90
2023-04-22T06:45:35.610Z,8.30
2023-04-22T06:48:16.677Z,6.50
2023-04-22T06:50:57.277Z,7.00
2023-04-22T06:53:36.954Z,4.90
2023-04-22T06:56:16.693Z,7.30
2023-04-22T06:58:55.776Z,7.00
2023-04-22T07:01:35.742Z,8.00
2023-04-22T07:04:15.744Z,8.10
2023-04-22T07:06:54.808Z,6.40
2023-04-22T07:09:34.494Z,6.60
2023-04-22T07:12:14.153Z,6.00
2023-04-22T07:14:53.639Z,7.90
2023-04-22T07:17:32.539Z,9.50
2023-04-22T07:20:13.224Z,6.40
2023-04-22T07:22:52.106Z,8.10
2023-04-22T07:25:31.815Z,7.00
2023-04-22T07:28:09.651Z,6.30
2023-04-22T07:30:49.765Z,7.10
2023-04-22T07:33:31.330Z,7.00
2023-04-22T07:36:12.028Z,6.60
2023-04-22T07:38:51.012Z,6.60
2023-04-22T07:41:30.572Z,6.90
2023-04-22T07:44:17.895Z,6.20
2023-04-22T07:46:57.947Z,7.40
2023-04-22T07:49:37.597Z,7.00
2023-04-22T07:52:08.611Z,5.20
2023-04-22T07:54:49.899Z,5.20
2023-04-22T07:57:29.334Z,5.80
2023-04-22T08:00:11.928Z,4.90
2023-04-22T08:02:51.798Z,3.90
2023-04-22T08:05:31.183Z,4.70
2023-04-22T08:08:11.503Z,4.50
2023-04-22T08:10:52.948Z,4.40
2023-04-22T08:13:33.233Z,3.60
2023-04-22T08:16:14.111Z,3.20
2023-04-22T08:18:53.983Z,3.10
2023-04-22T08:21:33.306Z,4.10
2023-04-22T08:24:10.797Z,4.70
2023-04-22T08:26:49.379Z,4.50
2023-04-22T08:29:31.238Z,3.70
2023-04-22T08:32:11.449Z,4.20
2023-04-22T08:35:01.397Z,3.60
2023-04-22T08:37:47.093Z,3.90
2023-04-22T08:40:26.868Z,3.00
2023-04-22T08:43:06.242Z,2.90
2023-04-22T08:45:47.075Z,2.90
2023-04-22T08:48:27.270Z,3.20
2023-04-22T08:53:42.386Z,3.20
2023-04-22T08:56:22.546Z,3.90
2023-04-22T08:59:01.459Z,2.20
2023-04-22T09:01:44.335Z,3.70
2023-04-22T09:04:24.666Z,3.60
2023-04-22T09:09:40.948Z,2.60
2023-04-22T09:12:20.181Z,2.80
2023-04-22T09:14:59.300Z,3.90
2023-04-22T09:17:39.837Z,2.50
2023-04-22T09:20:20.450Z,2.80
2023-04-22T09:22:59.721Z,3.10
2023-04-22T09:25:40.019Z,2.90
2023-04-22T09:28:22.673Z,2.70
2023-04-22T09:31:06.097Z,3.30
2023-04-22T09:33:50.322Z,3.40
2023-04-22T09:36:34.359Z,3.00
2023-04-22T09:39:10.551Z,2.90
2023-04-22T09:41:56.938Z,3.10
2023-04-22T09:44:31.044Z,3.00
2023-04-22T09:47:12.499Z,2.80
2023-04-22T09:49:51.121Z,4.20
2023-04-22T09:52:34.340Z,3.10
2023-04-22T09:55:11.330Z,3.30
2023-04-22T09:57:52.578Z,2.90
2023-04-22T10:00:32.492Z,3.10
2023-04-22T10:03:11.244Z,3.30
2023-04-22T10:05:50.152Z,2.90
2023-04-22T10:08:29.734Z,3.20
2023-04-22T10:11:10.146Z,2.40
2023-04-22T10:13:49.770Z,3.20
2023-04-22T10:16:32.412Z,2.40
2023-04-22T10:19:14.373Z,1.60
2023-04-22T10:22:04.718Z,3.50
2023-04-22T10:24:45.524Z,3.10
2023-04-22T10:27:26.369Z,2.70
2023-04-22T10:30:05.691Z,3.40
2023-04-22T10:32:45.034Z,2.60
2023-04-22T10:35:31.145Z,2.80
2023-04-22T10:38:12.731Z,2.30
2023-04-22T10:41:05.277Z,2.20
2023-04-22T10:43:59.386Z,2.60
2023-04-22T10:46:45.016Z,2.50
2023-04-22T10:49:24.464Z,2.80
2023-04-22T10:52:05.852Z,2.90
2023-04-22T10:54:49.922Z,2.60
2023-04-22T10:57:40.513Z,3.00
2023-04-22T11:00:45.833Z,2.80
2023-04-22T11:03:39.484Z,3.20
2023-04-22T11:06:28.718Z,2.10
2023-04-22T11:09:14.436Z,2.90
2023-04-22T11:11:53.707Z,2.50
2023-04-22T11:14:33.119Z,2.30
2023-04-22T11:17:13.691Z,2.60
2023-04-22T11:19:58.272Z,1.90
2023-04-22T11:22:49.660Z,2.10
2023-04-22T11:25:30.223Z,2.20
2023-04-22T11:28:09.581Z,2.60
2023-04-22T11:30:48.965Z,2.40
2023-04-22T11:33:28.403Z,2.30
2023-04-22T11:36:12.531Z,2.20
2023-04-22T11:39:09.141Z,1.90
2023-04-22T11:41:49.214Z,1.60
2023-04-22T11:44:30.915Z,2.20
2023-04-22T11:47:13.981Z,2.20
2023-04-22T11:50:10.150Z,2.10
2023-04-22T11:53:15.042Z,1.40
2023-04-22T11:55:54.462Z,2.80
2023-04-22T11:58:34.020Z,2.60
2023-04-22T12:01:14.966Z,3.10
2023-04-22T12:04:04.883Z,2.40
2023-04-22T12:06:37.148Z,2.40
2023-04-22T12:09:16.011Z,2.90
2023-04-22T12:11:54.633Z,3.00
2023-04-22T12:14:36.696Z,3.50
2023-04-22T12:17:17.047Z,2.30
2023-04-22T12:19:56.321Z,2.20
2023-04-22T12:22:34.831Z,3.30
2023-04-22T12:25:20.455Z,2.60
2023-04-22T12:27:57.661Z,1.50
2023-04-22T12:30:35.669Z,2.50
2023-04-22T12:33:08.170Z,2.40
2023-04-22T12:35:49.359Z,2.20
2023-04-22T12:38:29.432Z,2.90
2023-04-22T12:41:10.890Z,2.10
2023-04-22T12:43:53.076Z,2.30
2023-04-22T12:46:27.310Z,2.20
2023-04-22T12:49:07.228Z,2.20
2023-04-22T12:51:47.375Z,2.70
2023-04-22T12:54:29.264Z,2.60
2023-04-22T12:57:15.990Z,2.50
2023-04-22T12:59:59.300Z,2.50
2023-04-22T13:02:38.102Z,3.00
2023-04-22T13:05:18.519Z,2.60
2023-04-22T13:08:06.410Z,2.80
2023-04-22T13:10:50.403Z,2.90
2023-04-22T13:13:30.760Z,3.00
2023-04-22T13:16:13.833Z,3.40
2023-04-22T13:18:53.773Z,3.20
2023-04-22T13:21:33.505Z,2.10
2023-04-22T13:26:39.635Z,2.60
2023-04-22T13:29:17.332Z,3.30
2023-04-22T13:31:57.262Z,3.70
2023-04-22T13:34:36.886Z,2.90
2023-04-22T13:37:22.113Z,3.30
2023-04-22T13:39:57.751Z,3.20
2023-04-22T13:42:37.522Z,2.90
2023-04-22T13:45:17.634Z,2.90
2023-04-22T13:47:57.741Z,3.80
2023-04-22T13:50:37.686Z,2.20
2023-04-22T13:53:17.725Z,3.60
2023-04-22T13:55:57.434Z,3.80
2023-04-22T13:58:37.480Z,2.90
2023-04-22T14:01:18.490Z,3.80
2023-04-22T14:03:58.895Z,3.60
2023-04-22T14:06:38.634Z,2.70
2023-04-22T14:09:18.416Z,3.00
2023-04-22T14:11:58.885Z,3.00
2023-04-22T14:14:38.383Z,2.90
2023-04-22T14:17:20.112Z,3.60
2023-04-22T14:19:58.658Z,2.80
2023-04-22T14:22:34.463Z,3.60
2023-04-22T14:25:15.670Z,3.30
2023-04-22T14:27:56.102Z,2.90
2023-04-22T14:30:35.940Z,4.80
2023-04-22T14:33:18.117Z,3.10
2023-04-22T14:35:58.065Z,3.30
2023-04-22T14:38:38.575Z,3.20
2023-04-22T14:41:19.272Z,3.50
2023-04-22T14:43:58.253Z,3.50
2023-04-22T14:46:39.244Z,3.10
2023-04-22T14:49:19.211Z,3.50
2023-04-22T14:52:03.047Z,4.40
2023-04-22T14:54:39.819Z,5.90
2023-04-22T14:57:19.680Z,3.60
2023-04-22T14:59:59.794Z,3.90
2023-04-22T15:02:39.989Z,3.90
2023-04-22T15:08:00.251Z,3.80
2023-04-22T15:10:39.842Z,3.60
2023-04-22T15:13:20.242Z,3.60
2023-04-22T15:16:00.144Z,3.10
2023-04-22T15:18:40.990Z,3.40
2023-04-22T15:21:20.605Z,2.60
2023-04-22T15:24:00.401Z,3.00
2023-04-22T15:26:40.944Z,3.30
2023-04-22T15:29:20.503Z,3.60
2023-04-22T15:32:00.348Z,3.20
2023-04-22T15:34:39.889Z,4.40
2023-04-22T15:37:20.692Z,2.90
2023-04-22T15:40:00.173Z,3.30
2023-04-22T15:42:39.930Z,3.40
2023-04-22T15:45:20.270Z,3.30
2023-04-22T15:48:00.759Z,3.50
2023-04-22T15:53:20.010Z,3.60
2023-04-22T15:55:59.977Z,3.10
2023-04-22T15:58:40.754Z,3.00
2023-04-22T16:01:21.338Z,3.30
2023-04-22T16:06:39.503Z,3.40
2023-04-22T16:09:20.114Z,3.60
2023-04-22T16:12:00.568Z,3.30
2023-04-22T16:14:40.861Z,9.00
2023-04-22T16:17:21.380Z,2.90
2023-04-22T16:20:01.986Z,4.50
2023-04-22T16:22:38.897Z,3.30
2023-04-22T16:25:19.614Z,3.10
2023-04-22T16:27:59.626Z,3.40
2023-04-22T16:30:40.680Z,3.20
2023-04-22T16:33:20.823Z,3.40
2023-04-22T16:36:00.798Z,3.10
2023-04-22T16:38:40.403Z,2.90
2023-04-22T16:41:21.367Z,2.50
2023-04-22T16:44:01.357Z,2.80
2023-04-22T16:46:32.821Z,2.60
2023-04-22T16:49:14.048Z,2.90
2023-04-22T16:51:54.176Z,3.20
2023-04-22T16:54:34.276Z,3.20
2023-04-22T16:57:15.196Z,2.70
2023-04-22T16:59:54.551Z,2.70
2023-04-22T17:02:34.667Z,3.50
2023-04-22T17:05:15.158Z,2.70
2023-04-22T17:07:48.618Z,2.80
2023-04-22T17:10:21.861Z,3.30
2023-04-22T17:13:01.144Z,3.40
2023-04-22T17:15:40.224Z,3.60
2023-04-22T17:18:11.336Z,3.10
2023-04-22T17:20:45.199Z,2.80
2023-04-22T17:23:24.208Z,2.90
2023-04-22T17:26:03.784Z,3.20
2023-04-22T17:28:44.629Z,4.10
2023-04-22T17:31:25.488Z,2.90
2023-04-22T17:34:04.669Z,3.00
2023-04-22T17:36:44.604Z,3.60
2023-04-22T17:39:24.363Z,3.40
2023-04-22T17:42:04.680Z,3.70
2023-04-22T17:44:44.986Z,3.90
2023-04-22T17:47:24.733Z,3.90
2023-04-22T17:50:03.994Z,4.00
2023-04-22T17:52:44.081Z,5.20
2023-04-22T17:55:23.286Z,4.30
2023-04-22T17:58:02.893Z,4.50
2023-04-22T18:00:42.597Z,4.40
2023-04-22T18:03:21.688Z,4.20
2023-04-22T18:05:56.872Z,4.30
2023-04-22T18:08:37.415Z,4.10
2023-04-22T18:11:17.505Z,5.20
2023-04-22T18:13:56.973Z,7.20
2023-04-22T18:16:37.154Z,7.60
2023-04-22T18:19:16.815Z,8.60
2023-04-22T18:21:59.959Z,7.20
2023-04-22T18:24:42.498Z,7.20
2023-04-22T18:27:21.676Z,7.30
2023-04-22T18:30:03.109Z,6.20
2023-04-22T18:32:43.200Z,5.80
2023-04-22T18:35:23.821Z,5.80
2023-04-22T18:38:04.364Z,8.00
2023-04-22T18:40:44.766Z,6.70
2023-04-22T18:43:26.446Z,6.60
2023-04-22T18:46:07.265Z,8.40
2023-04-22T18:48:47.654Z,8.00
2023-04-22T18:51:28.244Z,9.10
2023-04-22T18:54:08.305Z,7.10
2023-04-22T18:56:47.976Z,6.40
2023-04-22T18:59:28.261Z,6.10
2023-04-22T19:02:07.872Z,7.10
2023-04-22T19:04:47.601Z,6.50
2023-04-22T19:07:27.635Z,6.10
2023-04-22T19:10:08.046Z,8.50
2023-04-22T19:12:47.787Z,7.00
2023-04-22T19:15:27.981Z,7.60
2023-04-22T19:18:08.083Z,7.90
2023-04-22T19:20:48.004Z,10.00
2023-04-22T19:23:28.297Z,10.30
2023-04-22T19:26:09.961Z,6.80
2023-04-22T19:28:49.366Z,7.40
2023-04-22T19:31:28.852Z,8.30
2023-04-22T19:34:09.146Z,9.00
2023-04-22T19:36:50.451Z,10.30
2023-04-22T19:39:29.257Z,11.30
2023-04-22T19:42:08.846Z,9.00
2023-04-22T19:44:48.913Z,10.30
2023-04-22T19:47:28.891Z,12.50
2023-04-22T19:50:10.480Z,21.00
2023-04-22T19:52:50.374Z,17.40
2023-04-22T19:55:29.571Z,20.00
2023-04-22T19:58:09.162Z,17.70
2023-04-22T20:00:49.712Z,14.60
2023-04-22T20:03:29.354Z,15.00
2023-04-22T20:06:09.536Z,16.40
2023-04-22T20:08:52.354Z,14.20
2023-04-22T20:11:30.054Z,13.70
2023-04-22T20:14:10.320Z,12.90
2023-04-22T20:16:50.245Z,12.40
2023-04-22T20:19:30.871Z,12.20
2023-04-22T20:22:12.485Z,12.30
2023-04-22T20:25:14.411Z,9.40
2023-04-22T20:27:55.453Z,10.10
2023-04-22T20:33:22.097Z,9.70
2023-04-22T20:36:05.887Z,9.70
2023-04-22T20:38:49.144Z,9.30
2023-04-22T20:41:29.776Z,8.20
2023-04-22T20:44:10.944Z,10.00
2023-04-22T20:46:50.906Z,9.70
2023-04-22T20:49:31.124Z,10.40
2023-04-22T20:52:12.660Z,10.40
2023-04-22T20:54:55.541Z,9.20
2023-04-22T20:57:31.710Z,11.50
2023-04-22T21:00:11.785Z,13.10
2023-04-22T21:02:51.468Z,12.10
2023-04-22T21:05:31.688Z,11.30
2023-04-22T21:08:26.503Z,10.80
2023-04-22T21:11:07.070Z,11.10
2023-04-22T21:13:49.097Z,12.70
2023-04-22T21:16:32.857Z,13.20
2023-04-22T21:19:15.834Z,11.30
2023-04-22T21:21:56.781Z,11.00
2023-04-22T21:27:16.569Z,13.30
2023-04-22T21:29:57.336Z,12.40
2023-04-22T21:32:43.757Z,12.20
2023-04-22T21:35:24.694Z,13.70
2023-04-22T21:38:06.100Z,14.40
2023-04-22T21:40:47.795Z,13.60
2023-04-22T21:43:30.007Z,13.60
2023-04-22T21:46:11.400Z,12.80
2023-04-22T21:48:51.841Z,10.30
2023-04-22T21:51:32.642Z,11.60
2023-04-22T21:54:13.195Z,12.50
2023-04-22T21:56:52.918Z,13.80
2023-04-22T21:59:33.222Z,14.50
2023-04-22T22:02:13.340Z,16.10
2023-04-22T22:04:53.125Z,12.30
2023-04-22T22:07:34.719Z,14.40
2023-04-22T22:10:16.645Z,14.40
2023-04-22T22:12:54.071Z,15.50
2023-04-22T22:15:33.803Z,16.70
2023-04-22T22:18:14.168Z,16.10
2023-04-22T22:20:54.219Z,17.30
2023-04-22T22:23:33.992Z,16.40
2023-04-22T22:26:14.521Z,17.10
2023-04-22T22:28:54.269Z,15.40
2023-04-22T22:31:29.447Z,16.10
2023-04-22T22:34:00.359Z,17.00
2023-04-22T22:36:40.514Z,17.80
2023-04-22T22:39:20.745Z,17.70
2023-04-22T22:42:00.146Z,15.30
2023-04-22T22:44:41.062Z,17.90
2023-04-22T22:47:21.252Z,15.90
2023-04-22T22:50:01.286Z,15.90
2023-04-22T22:52:41.538Z,17.00
2023-04-22T22:55:20.635Z,15.70
2023-04-22T22:58:00.240Z,17.00
2023-04-22T23:00:39.950Z,16.30
2023-04-22T23:03:20.052Z,15.80
2023-04-22T23:06:00.862Z,14.60
2023-04-22T23:08:40.824Z,15.90
2023-04-22T23:11:21.240Z,12.10
2023-04-22T23:14:02.883Z,15.00
2023-04-22T23:16:44.225Z,15.10
2023-04-22T23:19:24.586Z,12.70
2023-04-22T23:22:05.452Z,8.30
2023-04-22T23:24:45.307Z,15.30
2023-04-22T23:27:26.433Z,14.50
2023-04-22T23:30:05.952Z,14.50
2023-04-22T23:32:48.965Z,14.40
2023-04-22T23:35:29.665Z,10.60
2023-04-22T23:38:12.151Z,13.80
2023-04-22T23:40:51.062Z,14.80
2023-04-22T23:43:30.385Z,15.60
2023-04-22T23:46:10.722Z,13.20
2023-04-22T23:48:43.857Z,10.90
2023-04-22T23:51:23.408Z,14.60
2023-04-22T23:54:02.660Z,13.90
2023-04-22T23:56:42.985Z,14.90
2023-04-22T23:59:22.504Z,16.20
